Airfield :
LOGIN :

Register | Disclaimer

   EN    FR    IT 

 










Legend :    VFR   Marginal VFR   IFR   Intensive IFR   Very Intensive IFR
Visi :
Ceiling :
>= 8 km
>= 3000ft
5 to 8 km
1000 to 3000 ft
1500m to 5 km
500 to 1000 ft
800 to 1500m
200 to 500 ft
< 800m
< 200 ft
Symbols :   Thunderstorms  Fog  Heavy snow  Heavy precipitations  Wind > 20 kt
SIGMETs :     Misc.  Thunderstorms  Icing  Turbulence  Mountain Waves  Volcanic Ashes







- Airport Elevation : 364 ft
- IATA code : FRA


EDDF - Frankfurt Int.

CURRENT METAR :
  • 220550Z VRB02KT 3800 -DZ SCT004 OVC006 01/01 Q1009 R88/2///95 TEMPO 5000 BKN004

EXPIRED METARs :
  • 220520Z 07003KT 4000 -DZRA FEW003 OVC007 01/01 Q1009 R88/2///95 TEMPO 5000 BKN004
  • 220450Z 06004KT 040V100 4000 -DZRA FEW003 BKN007 01/01 Q1010 R88/2///95 TEMPO 5000 BKN004
  • 220420Z 06005KT 2500 -DZRA SCT003 BKN007 OVC020 01/00 Q1010 TEMPO BKN004
  • 220350Z 05006KT 2500 -DZRA SCT003 BKN007 OVC020 01/00 Q1010 TEMPO BKN004

TAF TAF EDDF
Valid from the 22 at 06:00 until the 23 at 12:00 UTC


220500Z 2206/2312 VRB03KT 6000 BKN010
TEMPO 2206/2212 2500 -RADZ BKN004
BECMG 2208/2211 24006KT
BECMG 2212/2215 BKN015
No reported NOTAMs for that airfield.
1 SIGMET reported for the Langen FIR (EDGG) :
 
Severe icing with freezing rain
EDGG SIGMET 7 VALID 220600/220800 EDZF
EDGG LANGEN FIR SEV ICE (FZRA) OBS E OF LINE N4845 E00940 - N5120 E00845 SFC/3000FT MOV SE WKN=



MET'MAP, your aeronautical weather chart ! - Copyright ORBIFLY December 2007 - Disclaimer

ORBIFLY MET'MAP TEAM :

Programming & Development : Alexandra Zaïnal
Concept & Development : Baudouin d'Aumeries
Co-Development & Prog : Marc-Olivier Méhu
Technical & hardware support : Manuel Goepfert

Contact : metmap@orbifly.com




SOURCES & CREDITS :

   NOAA